KMRT

Union County Airport

Marysville, Ohio, USA
METAR KMRT 151915Z AUTO 26013KT 4SM OVC025 M02/M06 A2991 RMK AO2 T10201058
Observed Flight Rules
Dec-15 @ 19:15 UTC (27 minutes ago) Marginal Visual Flight Rules
Wind Visibility Clouds
260° at 13 knots 4 miles
  • Overcast at 2,500' AGL
Temperatures Readings
Current -2°C / 28°F
Dewpoint -6°C / 21°F
Humidity 74%
Altimeter 29.91" Hg
Pressure 1013 hPa
Elevation 312
METAR KMRT 151915Z AUTO 26013KT 4SM OVC025 M02/M06 A2991 RMK AO2 T10201058
Observed Flight Rules
Dec-15 @ 19:15 UTC
(27 minutes ago)
MVFR
Wind Visibility
260° at 13 knots 4 miles
Clouds
  • Overcast at 2,500' AGL
Temperature Dewpoint
-2°C / 28°F -6°C / 21°F
Humidity Altimeter Pressure
74% 29.91" Hg 1013 hPa